Salem, Wisconsin
Current Conditions -  °F | °C
As of 8:53 AM on Saturday 25 Oct 2014 (Local Time) from KENW Reporting Station
Haze Haze  
Wind Chill: 58°   Ceiling: Unl
Heat Index: 58°   Visibility: 6mi
Dew Point: 53°   Wind: 10mph
Humidity: 84%   Direction: 290°WNW
Pressure: 29.91"   Gusts: NA
Location:  42.55°N, 88.11°W
Report Text: KENW 251353Z 29009KT 6SM HZ CLR 14/12 A2991 RMK AO2 SLP131 T01440117
Loading
Personal Weather Stations






























Interactive Weather Map
Tropical Storm Tracking
New forecast layout! Learn more

10-Day Weather Forecast

Advertisements
Track Severe Weather on mobile